sensor_id;sensor_type;location;lat;lon;timestamp;pressure;altitude;pressure_sealevel;temperature;humidity
37860;BME280;23698;52.014;5.190;2023-04-08T00:02:31;102124.06;;;10.19;100.00
37860;BME280;23698;52.014;5.190;2023-04-08T00:05:18;102120.06;;;10.06;100.00
37860;BME280;23698;52.014;5.190;2023-04-08T00:08:06;102122.03;;;10.21;100.00
37860;BME280;23698;52.014;5.190;2023-04-08T00:10:53;102120.28;;;10.12;100.00
37860;BME280;23698;52.014;5.190;2023-04-08T00:13:39;102122.31;;;9.92;100.00
37860;BME280;23698;52.014;5.190;2023-04-08T00:16:26;102119.56;;;9.84;100.00
37860;BME280;23698;52.014;5.190;2023-04-08T00:19:12;102115.44;;;9.80;100.00
37860;BME280;23698;52.014;5.190;2023-04-08T00:21:58;102122.16;;;9.94;100.00
37860;BME280;23698;52.014;5.190;2023-04-08T00:24:46;102120.91;;;10.06;100.00
37860;BME280;23698;52.014;5.190;2023-04-08T00:27:33;102116.78;;;10.20;100.00
37860;BME280;23698;52.014;5.190;2023-04-08T00:30:19;102126.25;;;10.16;100.00
37860;BME280;23698;52.014;5.190;2023-04-08T00:33:06;102124.03;;;9.93;100.00
37860;BME280;23698;52.014;5.190;2023-04-08T00:35:53;102124.81;;;9.68;100.00
37860;BME280;23698;52.014;5.190;2023-04-08T00:38:39;102124.28;;;9.82;100.00
37860;BME280;23698;52.014;5.190;2023-04-08T00:41:27;102125.88;;;9.75;100.00
37860;BME280;23698;52.014;5.190;2023-04-08T00:44:13;102127.34;;;9.51;100.00
37860;BME280;23698;52.014;5.190;2023-04-08T00:47:00;102124.25;;;9.46;100.00
37860;BME280;23698;52.014;5.190;2023-04-08T00:49:47;102135.00;;;9.38;100.00
37860;BME280;23698;52.014;5.190;2023-04-08T00:52:33;102130.44;;;9.38;100.00
37860;BME280;23698;52.014;5.190;2023-04-08T00:55:20;102136.25;;;9.61;100.00
37860;BME280;23698;52.014;5.190;2023-04-08T00:58:07;102139.34;;;9.85;100.00
37860;BME280;23698;52.014;5.190;2023-04-08T01:00:59;102140.50;;;9.64;100.00
37860;BME280;23698;52.014;5.190;2023-04-08T01:03:53;102140.78;;;9.43;100.00
37860;BME280;23698;52.014;5.190;2023-04-08T01:06:47;102140.34;;;9.48;100.00
37860;BME280;23698;52.014;5.190;2023-04-08T01:09:37;102143.75;;;9.50;100.00
37860;BME280;23698;52.014;5.190;2023-04-08T01:12:25;102140.47;;;9.28;100.00
37860;BME280;23698;52.014;5.190;2023-04-08T01:15:14;102146.19;;;9.25;100.00
37860;BME280;23698;52.014;5.190;2023-04-08T01:18:05;102148.44;;;9.30;100.00
37860;BME280;23698;52.014;5.190;2023-04-08T01:20:53;102142.91;;;9.03;100.00
37860;BME280;23698;52.014;5.190;2023-04-08T01:23:52;102145.06;;;8.90;100.00
37860;BME280;23698;52.014;5.190;2023-04-08T01:26:42;102145.50;;;8.85;100.00
37860;BME280;23698;52.014;5.190;2023-04-08T01:29:29;102143.63;;;8.96;100.00
37860;BME280;23698;52.014;5.190;2023-04-08T01:32:16;102145.81;;;9.10;100.00
37860;BME280;23698;52.014;5.190;2023-04-08T01:35:04;102150.78;;;9.15;100.00
37860;BME280;23698;52.014;5.190;2023-04-08T01:37:51;102146.22;;;8.87;100.00
37860;BME280;23698;52.014;5.190;2023-04-08T01:40:40;102161.13;;;8.54;100.00
37860;BME280;23698;52.014;5.190;2023-04-08T01:43:29;102157.59;;;8.44;100.00
37860;BME280;23698;52.014;5.190;2023-04-08T01:46:18;102158.00;;;8.39;100.00
37860;BME280;23698;52.014;5.190;2023-04-08T01:49:06;102170.13;;;8.45;100.00
37860;BME280;23698;52.014;5.190;2023-04-08T01:51:54;102172.84;;;8.06;100.00
37860;BME280;23698;52.014;5.190;2023-04-08T01:54:41;102173.56;;;7.88;100.00
37860;BME280;23698;52.014;5.190;2023-04-08T01:57:31;102185.03;;;7.81;100.00
37860;BME280;23698;52.014;5.190;2023-04-08T02:00:23;102182.34;;;7.81;100.00
37860;BME280;23698;52.014;5.190;2023-04-08T02:03:11;102185.47;;;7.86;100.00
37860;BME280;23698;52.014;5.190;2023-04-08T02:05:58;102182.22;;;8.11;100.00
37860;BME280;23698;52.014;5.190;2023-04-08T02:08:44;102182.63;;;8.07;100.00
37860;BME280;23698;52.014;5.190;2023-04-08T02:11:31;102181.50;;;7.80;100.00
37860;BME280;23698;52.014;5.190;2023-04-08T02:14:17;102176.38;;;7.97;100.00
37860;BME280;23698;52.014;5.190;2023-04-08T02:17:09;102173.56;;;7.88;100.00
37860;BME280;23698;52.014;5.190;2023-04-08T02:20:02;102179.38;;;7.84;100.00
37860;BME280;23698;52.014;5.190;2023-04-08T02:22:57;102176.25;;;7.69;100.00
37860;BME280;23698;52.014;5.190;2023-04-08T02:25:47;102174.25;;;8.20;100.00
37860;BME280;23698;52.014;5.190;2023-04-08T02:28:34;102166.44;;;8.17;100.00
37860;BME280;23698;52.014;5.190;2023-04-08T02:31:22;102165.13;;;8.21;100.00
37860;BME280;23698;52.014;5.190;2023-04-08T02:34:11;102162.56;;;8.39;100.00
37860;BME280;23698;52.014;5.190;2023-04-08T02:36:59;102163.28;;;8.41;100.00
37860;BME280;23698;52.014;5.190;2023-04-08T02:39:45;102166.94;;;8.59;100.00
37860;BME280;23698;52.014;5.190;2023-04-08T02:42:31;102167.28;;;8.84;100.00
37860;BME280;23698;52.014;5.190;2023-04-08T02:45:18;102166.16;;;8.86;100.00
37860;BME280;23698;52.014;5.190;2023-04-08T02:48:07;102177.03;;;9.04;100.00
37860;BME280;23698;52.014;5.190;2023-04-08T02:50:55;102167.63;;;9.36;100.00
37860;BME280;23698;52.014;5.190;2023-04-08T02:53:41;102171.78;;;9.31;100.00
37860;BME280;23698;52.014;5.190;2023-04-08T02:56:28;102178.38;;;9.28;100.00
37860;BME280;23698;52.014;5.190;2023-04-08T02:59:14;102177.91;;;8.58;100.00
37860;BME280;23698;52.014;5.190;2023-04-08T03:02:00;102184.00;;;9.35;100.00
37860;BME280;23698;52.014;5.190;2023-04-08T03:04:47;102189.16;;;9.00;100.00
37860;BME280;23698;52.014;5.190;2023-04-08T03:07:34;102182.31;;;8.49;100.00
37860;BME280;23698;52.014;5.190;2023-04-08T03:10:20;102181.22;;;8.22;100.00
37860;BME280;23698;52.014;5.190;2023-04-08T03:13:06;102183.47;;;7.88;100.00
37860;BME280;23698;52.014;5.190;2023-04-08T03:15:53;102183.06;;;7.73;100.00
37860;BME280;23698;52.014;5.190;2023-04-08T03:18:39;102188.44;;;7.63;100.00
37860;BME280;23698;52.014;5.190;2023-04-08T03:21:25;102192.72;;;7.66;100.00
37860;BME280;23698;52.014;5.190;2023-04-08T03:24:13;102183.75;;;7.55;100.00
37860;BME280;23698;52.014;5.190;2023-04-08T03:26:59;102188.22;;;7.35;100.00
37860;BME280;23698;52.014;5.190;2023-04-08T03:29:46;102204.19;;;7.08;100.00
37860;BME280;23698;52.014;5.190;2023-04-08T03:32:32;102210.78;;;6.94;100.00
37860;BME280;23698;52.014;5.190;2023-04-08T03:35:19;102217.34;;;7.01;100.00
37860;BME280;23698;52.014;5.190;2023-04-08T03:38:08;102220.75;;;7.03;100.00
37860;BME280;23698;52.014;5.190;2023-04-08T03:40:56;102222.44;;;7.04;100.00
37860;BME280;23698;52.014;5.190;2023-04-08T03:43:43;102227.03;;;6.83;100.00
37860;BME280;23698;52.014;5.190;2023-04-08T03:46:30;102233.56;;;7.42;100.00
37860;BME280;23698;52.014;5.190;2023-04-08T03:49:16;102226.97;;;7.85;100.00
37860;BME280;23698;52.014;5.190;2023-04-08T03:52:02;102205.94;;;8.18;100.00
37860;BME280;23698;52.014;5.190;2023-04-08T03:54:49;102201.53;;;8.36;100.00
37860;BME280;23698;52.014;5.190;2023-04-08T03:57:37;102205.50;;;8.42;100.00
37860;BME280;23698;52.014;5.190;2023-04-08T04:00:24;102208.66;;;8.47;100.00
37860;BME280;23698;52.014;5.190;2023-04-08T04:03:10;102206.09;;;8.26;100.00
37860;BME280;23698;52.014;5.190;2023-04-08T04:05:57;102207.06;;;8.64;100.00
37860;BME280;23698;52.014;5.190;2023-04-08T04:08:43;102205.28;;;8.82;100.00
37860;BME280;23698;52.014;5.190;2023-04-08T04:11:30;102213.00;;;9.24;100.00
37860;BME280;23698;52.014;5.190;2023-04-08T04:14:18;102208.94;;;8.44;100.00
37860;BME280;23698;52.014;5.190;2023-04-08T04:17:04;102211.19;;;8.19;100.00
37860;BME280;23698;52.014;5.190;2023-04-08T04:19:50;102209.66;;;8.17;100.00
37860;BME280;23698;52.014;5.190;2023-04-08T04:22:37;102217.03;;;8.24;100.00
37860;BME280;23698;52.014;5.190;2023-04-08T04:25:23;102222.44;;;8.44;100.00
37860;BME280;23698;52.014;5.190;2023-04-08T04:28:09;102213.22;;;8.46;100.00
37860;BME280;23698;52.014;5.190;2023-04-08T04:30:57;102219.19;;;8.50;100.00
37860;BME280;23698;52.014;5.190;2023-04-08T04:33:43;102220.59;;;8.54;100.00
37860;BME280;23698;52.014;5.190;2023-04-08T04:36:31;102219.59;;;8.26;100.00
37860;BME280;23698;52.014;5.190;2023-04-08T04:39:17;102227.56;;;8.08;100.00
37860;BME280;23698;52.014;5.190;2023-04-08T04:42:04;102240.72;;;7.72;100.00
37860;BME280;23698;52.014;5.190;2023-04-08T04:44:50;102244.72;;;7.87;100.00
37860;BME280;23698;52.014;5.190;2023-04-08T04:47:39;102244.91;;;7.96;100.00
37860;BME280;23698;52.014;5.190;2023-04-08T04:50:26;102244.75;;;7.97;100.00
37860;BME280;23698;52.014;5.190;2023-04-08T04:53:12;102245.34;;;8.20;100.00
37860;BME280;23698;52.014;5.190;2023-04-08T04:55:58;102256.00;;;8.31;100.00
37860;BME280;23698;52.014;5.190;2023-04-08T04:58:45;102257.13;;;8.19;100.00
37860;BME280;23698;52.014;5.190;2023-04-08T05:01:32;102256.44;;;8.07;100.00
37860;BME280;23698;52.014;5.190;2023-04-08T05:04:20;102251.16;;;8.06;100.00
37860;BME280;23698;52.014;5.190;2023-04-08T05:07:06;102247.63;;;8.25;100.00
37860;BME280;23698;52.014;5.190;2023-04-08T05:09:53;102255.28;;;8.10;100.00
37860;BME280;23698;52.014;5.190;2023-04-08T05:12:39;102246.31;;;8.19;100.00
37860;BME280;23698;52.014;5.190;2023-04-08T05:15:26;102259.28;;;8.06;100.00
37860;BME280;23698;52.014;5.190;2023-04-08T05:18:13;102266.75;;;7.83;100.00
37860;BME280;23698;52.014;5.190;2023-04-08T05:21:01;102263.81;;;8.15;100.00
37860;BME280;23698;52.014;5.190;2023-04-08T05:23:47;102265.09;;;8.30;100.00
37860;BME280;23698;52.014;5.190;2023-04-08T05:26:36;102267.97;;;8.58;100.00
37860;BME280;23698;52.014;5.190;2023-04-08T05:29:22;102272.66;;;8.76;100.00
37860;BME280;23698;52.014;5.190;2023-04-08T05:32:09;102274.34;;;8.38;100.00
37860;BME280;23698;52.014;5.190;2023-04-08T05:34:56;102281.88;;;8.15;100.00
37860;BME280;23698;52.014;5.190;2023-04-08T05:37:43;102284.41;;;8.06;100.00
37860;BME280;23698;52.014;5.190;2023-04-08T05:40:29;102281.88;;;8.24;100.00
37860;BME280;23698;52.014;5.190;2023-04-08T05:43:16;102289.56;;;8.29;100.00
37860;BME280;23698;52.014;5.190;2023-04-08T05:46:05;102289.16;;;8.34;100.00
37860;BME280;23698;52.014;5.190;2023-04-08T05:48:51;102295.50;;;8.23;100.00
37860;BME280;23698;52.014;5.190;2023-04-08T05:51:38;102289.88;;;8.45;100.00
37860;BME280;23698;52.014;5.190;2023-04-08T05:54:25;102292.38;;;8.08;100.00
37860;BME280;23698;52.014;5.190;2023-04-08T05:57:11;102294.09;;;8.19;100.00
37860;BME280;23698;52.014;5.190;2023-04-08T05:59:58;102292.66;;;8.05;100.00
37860;BME280;23698;52.014;5.190;2023-04-08T06:02:45;102296.50;;;8.12;100.00
37860;BME280;23698;52.014;5.190;2023-04-08T06:05:31;102295.72;;;7.71;100.00
37860;BME280;23698;52.014;5.190;2023-04-08T06:08:18;102297.59;;;7.80;100.00
37860;BME280;23698;52.014;5.190;2023-04-08T06:11:06;102306.69;;;7.89;100.00
37860;BME280;23698;52.014;5.190;2023-04-08T06:13:52;102308.69;;;7.97;100.00
37860;BME280;23698;52.014;5.190;2023-04-08T06:16:39;102313.44;;;8.24;100.00
37860;BME280;23698;52.014;5.190;2023-04-08T06:19:25;102310.41;;;7.98;100.00
37860;BME280;23698;52.014;5.190;2023-04-08T06:22:11;102312.97;;;8.09;100.00
37860;BME280;23698;52.014;5.190;2023-04-08T06:24:58;102318.25;;;8.01;100.00
37860;BME280;23698;52.014;5.190;2023-04-08T06:27:46;102323.25;;;8.15;100.00
37860;BME280;23698;52.014;5.190;2023-04-08T06:30:32;102322.31;;;8.45;100.00
37860;BME280;23698;52.014;5.190;2023-04-08T06:33:19;102321.47;;;8.55;100.00
37860;BME280;23698;52.014;5.190;2023-04-08T06:36:06;102329.22;;;8.38;100.00
37860;BME280;23698;52.014;5.190;2023-04-08T06:38:53;102330.84;;;8.50;100.00
37860;BME280;23698;52.014;5.190;2023-04-08T06:41:39;102334.09;;;8.93;100.00
37860;BME280;23698;52.014;5.190;2023-04-08T06:44:42;102337.97;;;8.81;100.00
37860;BME280;23698;52.014;5.190;2023-04-08T06:47:28;102350.63;;;8.61;100.00
37860;BME280;23698;52.014;5.190;2023-04-08T06:50:14;102342.47;;;9.10;100.00
37860;BME280;23698;52.014;5.190;2023-04-08T06:53:00;102343.59;;;9.17;100.00
37860;BME280;23698;52.014;5.190;2023-04-08T06:55:47;102345.34;;;8.98;100.00
37860;BME280;23698;52.014;5.190;2023-04-08T06:58:33;102343.88;;;9.14;100.00
37860;BME280;23698;52.014;5.190;2023-04-08T07:01:21;102354.31;;;8.69;100.00
37860;BME280;23698;52.014;5.190;2023-04-08T07:04:09;102355.31;;;8.59;100.00
37860;BME280;23698;52.014;5.190;2023-04-08T07:06:55;102358.44;;;8.93;100.00
37860;BME280;23698;52.014;5.190;2023-04-08T07:09:41;102368.69;;;8.60;100.00
37860;BME280;23698;52.014;5.190;2023-04-08T07:12:29;102361.69;;;9.06;100.00
37860;BME280;23698;52.014;5.190;2023-04-08T07:15:16;102363.78;;;9.22;100.00
37860;BME280;23698;52.014;5.190;2023-04-08T07:18:03;102376.50;;;8.73;100.00
37860;BME280;23698;52.014;5.190;2023-04-08T07:20:50;102373.41;;;8.78;100.00
37860;BME280;23698;52.014;5.190;2023-04-08T07:23:36;102372.53;;;8.97;100.00
37860;BME280;23698;52.014;5.190;2023-04-08T07:26:23;102386.75;;;8.69;100.00
37860;BME280;23698;52.014;5.190;2023-04-08T07:29:09;102382.63;;;8.46;100.00
37860;BME280;23698;52.014;5.190;2023-04-08T07:31:55;102392.47;;;8.76;100.00
37860;BME280;23698;52.014;5.190;2023-04-08T07:34:43;102392.25;;;9.36;100.00
37860;BME280;23698;52.014;5.190;2023-04-08T07:37:29;102388.56;;;9.37;100.00
37860;BME280;23698;52.014;5.190;2023-04-08T07:40:16;102400.50;;;9.35;100.00
37860;BME280;23698;52.014;5.190;2023-04-08T07:43:02;102408.19;;;9.39;100.00
37860;BME280;23698;52.014;5.190;2023-04-08T07:45:48;102395.69;;;9.76;100.00
37860;BME280;23698;52.014;5.190;2023-04-08T07:48:35;102395.97;;;9.25;100.00
37860;BME280;23698;52.014;5.190;2023-04-08T07:51:23;102403.78;;;9.48;100.00
37860;BME280;23698;52.014;5.190;2023-04-08T07:54:09;102400.44;;;10.01;100.00
37860;BME280;23698;52.014;5.190;2023-04-08T07:56:56;102409.47;;;10.20;100.00
37860;BME280;23698;52.014;5.190;2023-04-08T07:59:43;102412.50;;;10.17;100.00
37860;BME280;23698;52.014;5.190;2023-04-08T08:02:29;102410.31;;;9.93;100.00
37860;BME280;23698;52.014;5.190;2023-04-08T08:05:16;102414.38;;;9.79;100.00
37860;BME280;23698;52.014;5.190;2023-04-08T08:08:04;102426.91;;;10.45;100.00
37860;BME280;23698;52.014;5.190;2023-04-08T08:10:51;102416.94;;;10.64;100.00
37860;BME280;23698;52.014;5.190;2023-04-08T08:13:38;102424.41;;;10.34;100.00
37860;BME280;23698;52.014;5.190;2023-04-08T08:16:27;102424.13;;;10.27;100.00
37860;BME280;23698;52.014;5.190;2023-04-08T08:19:13;102427.72;;;10.55;100.00
37860;BME280;23698;52.014;5.190;2023-04-08T08:22:00;102431.38;;;10.36;100.00
37860;BME280;23698;52.014;5.190;2023-04-08T08:24:47;102424.75;;;10.67;100.00
37860;BME280;23698;52.014;5.190;2023-04-08T08:27:34;102431.53;;;10.35;100.00
37860;BME280;23698;52.014;5.190;2023-04-08T08:30:20;102438.97;;;10.23;100.00
37860;BME280;23698;52.014;5.190;2023-04-08T08:33:07;102436.88;;;10.45;100.00
37860;BME280;23698;52.014;5.190;2023-04-08T08:35:53;102438.88;;;10.70;100.00
37860;BME280;23698;52.014;5.190;2023-04-08T08:38:42;102443.22;;;10.81;100.00
37860;BME280;23698;52.014;5.190;2023-04-08T08:41:33;102439.94;;;10.77;100.00
37860;BME280;23698;52.014;5.190;2023-04-08T08:44:20;102441.97;;;11.29;100.00
37860;BME280;23698;52.014;5.190;2023-04-08T08:47:07;102450.47;;;11.34;100.00
37860;BME280;23698;52.014;5.190;2023-04-08T08:49:53;102445.38;;;11.84;100.00
37860;BME280;23698;52.014;5.190;2023-04-08T08:52:47;102459.56;;;11.96;100.00
37860;BME280;23698;52.014;5.190;2023-04-08T08:55:33;102458.50;;;11.88;100.00
37860;BME280;23698;52.014;5.190;2023-04-08T08:58:41;102452.91;;;12.24;100.00
37860;BME280;23698;52.014;5.190;2023-04-08T09:01:32;102465.06;;;12.04;100.00
37860;BME280;23698;52.014;5.190;2023-04-08T09:04:20;102461.09;;;12.33;100.00
37860;BME280;23698;52.014;5.190;2023-04-08T09:07:08;102466.75;;;12.47;100.00
37860;BME280;23698;52.014;5.190;2023-04-08T09:09:57;102477.88;;;12.62;100.00
37860;BME280;23698;52.014;5.190;2023-04-08T09:12:52;102483.84;;;12.82;100.00
37860;BME280;23698;52.014;5.190;2023-04-08T09:15:59;102492.94;;;13.08;100.00
37860;BME280;23698;52.014;5.190;2023-04-08T09:18:46;102493.34;;;13.46;100.00
37860;BME280;23698;52.014;5.190;2023-04-08T09:21:33;102499.78;;;13.36;100.00
37860;BME280;23698;52.014;5.190;2023-04-08T09:24:27;102510.47;;;13.13;100.00
37860;BME280;23698;52.014;5.190;2023-04-08T09:27:14;102512.53;;;13.19;100.00
37860;BME280;23698;52.014;5.190;2023-04-08T09:30:13;102511.66;;;13.11;100.00
37860;BME280;23698;52.014;5.190;2023-04-08T09:33:00;102508.66;;;13.63;100.00
37860;BME280;23698;52.014;5.190;2023-04-08T09:35:51;102517.00;;;13.62;100.00
37860;BME280;23698;52.014;5.190;2023-04-08T09:38:38;102514.06;;;13.88;100.00
37860;BME280;23698;52.014;5.190;2023-04-08T09:41:27;102512.91;;;13.74;100.00
37860;BME280;23698;52.014;5.190;2023-04-08T09:44:15;102525.75;;;14.13;100.00
37860;BME280;23698;52.014;5.190;2023-04-08T09:47:07;102529.97;;;14.32;100.00
37860;BME280;23698;52.014;5.190;2023-04-08T09:50:00;102533.31;;;13.94;100.00
37860;BME280;23698;52.014;5.190;2023-04-08T09:52:52;102531.94;;;14.07;100.00
37860;BME280;23698;52.014;5.190;2023-04-08T09:55:40;102531.28;;;14.52;100.00
37860;BME280;23698;52.014;5.190;2023-04-08T09:58:33;102533.06;;;14.77;100.00
37860;BME280;23698;52.014;5.190;2023-04-08T10:01:27;102532.03;;;14.78;100.00
37860;BME280;23698;52.014;5.190;2023-04-08T10:04:19;102538.94;;;15.20;100.00
37860;BME280;23698;52.014;5.190;2023-04-08T10:07:08;102528.31;;;14.70;100.00
37860;BME280;23698;52.014;5.190;2023-04-08T10:09:57;102525.44;;;14.64;100.00
37860;BME280;23698;52.014;5.190;2023-04-08T10:12:43;102535.72;;;15.39;100.00
37860;BME280;23698;52.014;5.190;2023-04-08T10:15:30;102539.03;;;15.35;100.00
37860;BME280;23698;52.014;5.190;2023-04-08T10:18:30;102539.69;;;15.37;100.00
37860;BME280;23698;52.014;5.190;2023-04-08T10:21:36;102541.06;;;15.09;100.00
37860;BME280;23698;52.014;5.190;2023-04-08T10:24:25;102545.59;;;15.25;100.00
37860;BME280;23698;52.014;5.190;2023-04-08T10:27:37;102546.59;;;15.24;100.00
37860;BME280;23698;52.014;5.190;2023-04-08T10:30:41;102533.88;;;15.55;100.00
37860;BME280;23698;52.014;5.190;2023-04-08T10:33:31;102543.34;;;15.29;100.00
37860;BME280;23698;52.014;5.190;2023-04-08T10:36:18;102539.94;;;15.50;100.00
37860;BME280;23698;52.014;5.190;2023-04-08T10:39:04;102538.16;;;15.57;100.00
37860;BME280;23698;52.014;5.190;2023-04-08T10:41:52;102531.13;;;15.17;100.00
37860;BME280;23698;52.014;5.190;2023-04-08T10:44:43;102532.03;;;15.32;100.00
37860;BME280;23698;52.014;5.190;2023-04-08T10:47:29;102529.38;;;15.24;100.00
37860;BME280;23698;52.014;5.190;2023-04-08T10:50:17;102528.41;;;15.17;100.00
37860;BME280;23698;52.014;5.190;2023-04-08T10:53:04;102522.84;;;15.25;100.00
37860;BME280;23698;52.014;5.190;2023-04-08T10:55:50;102524.78;;;15.62;100.00
37860;BME280;23698;52.014;5.190;2023-04-08T10:58:48;102529.69;;;15.67;100.00
37860;BME280;23698;52.014;5.190;2023-04-08T11:01:38;102537.88;;;15.67;100.00
37860;BME280;23698;52.014;5.190;2023-04-08T11:04:28;102538.00;;;16.27;100.00
37860;BME280;23698;52.014;5.190;2023-04-08T11:07:19;102529.28;;;16.68;100.00
37860;BME280;23698;52.014;5.190;2023-04-08T11:10:06;102533.28;;;16.35;100.00
37860;BME280;23698;52.014;5.190;2023-04-08T11:12:53;102526.69;;;16.30;100.00
37860;BME280;23698;52.014;5.190;2023-04-08T11:15:41;102529.44;;;16.15;100.00
37860;BME280;23698;52.014;5.190;2023-04-08T11:18:29;102525.97;;;16.87;100.00
37860;BME280;23698;52.014;5.190;2023-04-08T11:21:16;102515.78;;;16.81;100.00
37860;BME280;23698;52.014;5.190;2023-04-08T11:24:08;102523.13;;;17.17;100.00
37860;BME280;23698;52.014;5.190;2023-04-08T11:26:55;102522.44;;;16.57;100.00
37860;BME280;23698;52.014;5.190;2023-04-08T11:29:43;102515.00;;;17.02;100.00
37860;BME280;23698;52.014;5.190;2023-04-08T11:32:32;102521.38;;;17.31;100.00
37860;BME280;23698;52.014;5.190;2023-04-08T11:35:19;102507.88;;;17.29;100.00
37860;BME280;23698;52.014;5.190;2023-04-08T11:38:06;102513.13;;;16.88;100.00
37860;BME280;23698;52.014;5.190;2023-04-08T11:40:53;102512.56;;;16.92;100.00
37860;BME280;23698;52.014;5.190;2023-04-08T11:43:50;102522.06;;;16.60;100.00
37860;BME280;23698;52.014;5.190;2023-04-08T11:46:37;102515.69;;;16.74;100.00
37860;BME280;23698;52.014;5.190;2023-04-08T11:49:26;102517.31;;;16.69;100.00
37860;BME280;23698;52.014;5.190;2023-04-08T11:52:13;102516.09;;;16.27;100.00
37860;BME280;23698;52.014;5.190;2023-04-08T11:54:59;102519.53;;;16.80;100.00
37860;BME280;23698;52.014;5.190;2023-04-08T11:57:45;102504.22;;;17.01;100.00
37860;BME280;23698;52.014;5.190;2023-04-08T12:00:32;102512.16;;;16.95;100.00
37860;BME280;23698;52.014;5.190;2023-04-08T12:03:19;102513.63;;;17.34;100.00
37860;BME280;23698;52.014;5.190;2023-04-08T12:06:06;102512.56;;;17.57;100.00
37860;BME280;23698;52.014;5.190;2023-04-08T12:08:55;102519.75;;;17.15;100.00
37860;BME280;23698;52.014;5.190;2023-04-08T12:11:41;102523.81;;;17.41;99.01
37860;BME280;23698;52.014;5.190;2023-04-08T12:14:28;102523.31;;;17.59;100.00
37860;BME280;23698;52.014;5.190;2023-04-08T12:17:14;102516.56;;;17.11;98.94
37860;BME280;23698;52.014;5.190;2023-04-08T12:20:05;102512.13;;;17.32;89.33
37860;BME280;23698;52.014;5.190;2023-04-08T12:22:53;102518.13;;;17.21;91.70
37860;BME280;23698;52.014;5.190;2023-04-08T12:25:40;102519.56;;;17.38;93.88
37860;BME280;23698;52.014;5.190;2023-04-08T12:28:29;102516.03;;;17.44;90.42
37860;BME280;23698;52.014;5.190;2023-04-08T12:31:16;102507.75;;;18.16;82.30
37860;BME280;23698;52.014;5.190;2023-04-08T12:34:02;102508.13;;;18.13;75.81
37860;BME280;23698;52.014;5.190;2023-04-08T12:36:48;102507.84;;;17.72;75.66
37860;BME280;23698;52.014;5.190;2023-04-08T12:39:36;102504.78;;;18.17;75.29
37860;BME280;23698;52.014;5.190;2023-04-08T12:42:22;102501.44;;;18.22;74.64
37860;BME280;23698;52.014;5.190;2023-04-08T12:45:09;102502.50;;;18.21;69.22
37860;BME280;23698;52.014;5.190;2023-04-08T12:47:55;102500.59;;;18.69;72.22
37860;BME280;23698;52.014;5.190;2023-04-08T12:50:42;102512.94;;;18.04;73.88
37860;BME280;23698;52.014;5.190;2023-04-08T12:53:28;102502.81;;;18.04;74.06
37860;BME280;23698;52.014;5.190;2023-04-08T12:56:16;102510.53;;;18.29;78.31
37860;BME280;23698;52.014;5.190;2023-04-08T12:59:03;102514.03;;;18.09;82.98
37860;BME280;23698;52.014;5.190;2023-04-08T13:01:49;102507.16;;;18.27;77.28
37860;BME280;23698;52.014;5.190;2023-04-08T13:04:36;102509.59;;;18.50;78.62
37860;BME280;23698;52.014;5.190;2023-04-08T13:07:22;102517.66;;;18.58;76.00
37860;BME280;23698;52.014;5.190;2023-04-08T13:10:09;102509.41;;;19.20;72.97
37860;BME280;23698;52.014;5.190;2023-04-08T13:12:57;102507.53;;;19.20;70.40
37860;BME280;23698;52.014;5.190;2023-04-08T13:15:43;102508.06;;;18.82;70.10
37860;BME280;23698;52.014;5.190;2023-04-08T13:18:29;102510.53;;;18.71;77.27
37860;BME280;23698;52.014;5.190;2023-04-08T13:21:16;102500.94;;;18.53;72.80
37860;BME280;23698;52.014;5.190;2023-04-08T13:24:04;102510.69;;;18.14;69.97
37860;BME280;23698;52.014;5.190;2023-04-08T13:26:54;102507.97;;;17.86;70.71
37860;BME280;23698;52.014;5.190;2023-04-08T13:29:50;102504.81;;;17.89;78.91
37860;BME280;23698;52.014;5.190;2023-04-08T13:32:36;102507.63;;;17.46;86.26
37860;BME280;23698;52.014;5.190;2023-04-08T13:35:23;102509.66;;;17.37;87.28
37860;BME280;23698;52.014;5.190;2023-04-08T13:38:10;102497.94;;;17.50;81.86
37860;BME280;23698;52.014;5.190;2023-04-08T13:40:57;102486.78;;;17.80;84.45
37860;BME280;23698;52.014;5.190;2023-04-08T13:43:44;102494.22;;;17.36;86.32
37860;BME280;23698;52.014;5.190;2023-04-08T13:46:33;102499.06;;;17.34;97.09
37860;BME280;23698;52.014;5.190;2023-04-08T13:49:19;102487.03;;;17.57;95.52
37860;BME280;23698;52.014;5.190;2023-04-08T13:52:06;102492.72;;;17.55;100.00
37860;BME280;23698;52.014;5.190;2023-04-08T13:54:53;102486.53;;;18.03;91.55
37860;BME280;23698;52.014;5.190;2023-04-08T13:57:39;102496.53;;;18.10;92.05
37860;BME280;23698;52.014;5.190;2023-04-08T14:00:26;102482.50;;;18.89;82.84
37860;BME280;23698;52.014;5.190;2023-04-08T14:03:14;102486.66;;;20.45;72.37
37860;BME280;23698;52.014;5.190;2023-04-08T14:06:00;102485.91;;;19.04;73.30
37860;BME280;23698;52.014;5.190;2023-04-08T14:08:47;102488.41;;;18.37;76.38
37860;BME280;23698;52.014;5.190;2023-04-08T14:11:34;102487.31;;;17.40;73.26
37860;BME280;23698;52.014;5.190;2023-04-08T14:14:23;102485.75;;;18.09;73.59
37860;BME280;23698;52.014;5.190;2023-04-08T14:17:09;102491.03;;;18.17;78.87
37860;BME280;23698;52.014;5.190;2023-04-08T14:19:57;102492.94;;;18.17;71.15
37860;BME280;23698;52.014;5.190;2023-04-08T14:22:45;102485.06;;;18.42;68.39
37860;BME280;23698;52.014;5.190;2023-04-08T14:25:31;102486.25;;;18.26;69.16
37860;BME280;23698;52.014;5.190;2023-04-08T14:28:17;102479.53;;;17.93;65.46
37860;BME280;23698;52.014;5.190;2023-04-08T14:31:04;102480.22;;;17.74;68.12
37860;BME280;23698;52.014;5.190;2023-04-08T14:33:51;102473.44;;;17.98;68.26
37860;BME280;23698;52.014;5.190;2023-04-08T14:36:38;102482.13;;;17.80;63.18